Hauptseite
METAR-TAF:

METAR-TAF

Flughäfen :

Dakar, Senegal

Flughafen Dakar-Léopold Sédar Senghor

Breite: 14-44N, Länge: 017-30W, Höhe: 27 m

Beobachtung

Neuester Wetterbericht von vor 40 Minuten, um 14:00 UTC
Wind 13 kt aus Nord/Nordwest
Temperatur 29°C
Luftfeuchtigkeit 62%
Luftdruck 1014 hPa
Sichtweite 10 km oder mehr
Aufgelockert bewölkt in der Höhe von 1300 ft

METAR: GOOY 221400Z 34013KT 9999 SCT013 29/21 Q1014 NOSIG

Zeit: 14:40 (14:40 UTC)

Prognose

Neuester Wetterbericht von vor 3 Stunden und 10 Minuten, um 11:30 UTC
Gültige Prognose vom 22 um 12 UTC bis 23 um 18 UTC
Wind 10 kt aus Nord/Nordwest
Sichtweite 10 km oder mehr
Aufgelockert bewölkt in der Höhe von 1200 ft

TAF: GOOY 221130Z 2212/2318 33010KT 9999 SCT012

Wetterbeobachtungen und Prognosen von mehr als 4000 Flughäfen (METAR und TAF Bericht).

Die verfügbaren Stationen werden durch gelbe und rote Markierungen auf der Karte dargestellt.

Führen Sie die Maus auf sie, um den Namen der Station zu sehen.

Darauf klicken, um die Beobachtung von Wetterbeobachtungen und Prognosen zu sehen.

Um die Karte zu ändern : klicken Sie auf den grünen Tasten mit einem schwarzen Kreuz Zum Vergrößern, auf den grünen Button mit einem Gedankenstrich zu verkleinern, oder auf die grünen Pfeile für benachbarte Karten.


METAR-TAF: